Time;durP1;ratioP1;P1;durP2;ratioP2;P2;SDS_P1;SDS_P2;PMS_P1;PMS_P2;Temp;Humidity;BMP_temperature;BMP_pressure;BME280_temperature;BME280_humidity;BME280_pressure;Samples;Min_cycle;Max_cycle;Signal;HPM_P1;HPM_P2
2023/03/14 00:01:48;;;;;;;;;;;;;;;9.10;100.00;97490.06;6232708;22;19911;-58
2023/03/14 00:04:14;;;;;;;;;;;;;;;9.15;100.00;97474.81;6206051;22;19917;-62
2023/03/14 00:06:39;;;;;;;;;;;;;;;9.17;100.00;97457.31;6205118;22;20293;-59
2023/03/14 00:09:04;;;;;;;;;;;;;;;9.14;100.00;97455.03;6233250;22;20455;-58
2023/03/14 00:11:30;;;;;;;;;;;;;;;9.07;100.00;97450.66;6234295;22;19911;-60
2023/03/14 00:13:56;;;;;;;;;;;;;;;9.26;100.00;97450.34;6206624;22;19917;-58
2023/03/14 00:16:21;;;;;;;;;;;;;;;9.23;100.00;97435.09;6232511;22;19911;-60
2023/03/14 00:18:46;;;;;;;;;;;;;;;9.13;100.00;97431.88;6231844;22;20635;-59
2023/03/14 00:21:11;;;;;;;;;;;;;;;9.16;100.00;97426.34;6230771;22;19986;-59
2023/03/14 00:23:37;;;;;;;;;;;;;;;8.88;100.00;97372.25;6207350;22;20326;-58
2023/03/14 00:26:04;;;;;;;;;;;;;;;9.20;100.00;97407.72;6233262;22;20579;-57
2023/03/14 00:28:29;;;;;;;;;;;;;;;9.14;100.00;97390.19;6232031;22;19911;-60
2023/03/14 00:30:55;;;;;;;;;;;;;;;9.31;100.00;97383.22;6231943;22;19919;-57
2023/03/14 00:33:20;;;;;;;;;;;;;;;9.37;100.00;97374.75;6233327;22;19911;-58
2023/03/14 00:35:54;;;;;;;;;;;;;;;9.39;100.00;97372.78;6231991;22;19911;-57
2023/03/14 00:38:21;;;;;;;;;;;;;;;9.47;100.00;97358.19;6260578;22;19993;-57
2023/03/14 00:40:46;;;;;;;;;;;;;;;9.34;100.00;97356.13;6233459;22;19918;-57
2023/03/14 00:43:11;;;;;;;;;;;;;;;9.34;100.00;97372.47;6207758;22;19911;-59
2023/03/14 00:45:36;;;;;;;;;;;;;;;9.42;100.00;97369.88;6234487;22;20001;-58
2023/03/14 00:48:02;;;;;;;;;;;;;;;9.45;100.00;97362.72;6232147;22;19918;-58
2023/03/14 00:50:27;;;;;;;;;;;;;;;9.51;100.00;97354.25;6232597;22;19972;-58
2023/03/14 00:52:52;;;;;;;;;;;;;;;9.36;100.00;97359.34;6233152;22;19917;-58
2023/03/14 00:55:17;;;;;;;;;;;;;;;9.17;100.00;97381.28;6232746;22;19918;-58
2023/03/14 00:57:43;;;;;;;;;;;;;;;9.12;100.00;97380.97;6260513;22;19933;-57
2023/03/14 01:00:11;;;;;;;;;;;;;;;9.04;100.00;97367.06;6258634;22;20487;-57
2023/03/14 01:02:36;;;;;;;;;;;;;;;9.11;100.00;97375.00;6259876;22;19934;-57
2023/03/14 01:05:01;;;;;;;;;;;;;;;9.08;100.00;97369.31;6230583;22;19961;-57
2023/03/14 01:07:27;;;;;;;;;;;;;;;9.16;100.00;97364.09;6232377;22;19915;-57
2023/03/14 01:09:52;;;;;;;;;;;;;;;9.19;100.00;97348.22;6207248;22;19957;-57
2023/03/14 01:12:18;;;;;;;;;;;;;;;9.05;100.00;97334.16;6260396;22;19919;-57
2023/03/14 01:14:43;;;;;;;;;;;;;;;9.04;100.00;97335.13;6259858;22;19911;-57
2023/03/14 01:17:08;;;;;;;;;;;;;;;9.14;100.00;97345.31;6207365;22;19911;-57
2023/03/14 01:19:33;;;;;;;;;;;;;;;9.27;100.00;97343.00;6259708;22;19989;-57
2023/03/14 01:21:59;;;;;;;;;;;;;;;9.31;100.00;97330.50;6234581;22;20417;-58
2023/03/14 01:24:24;;;;;;;;;;;;;;;9.27;100.00;97330.03;6232632;22;19911;-57
2023/03/14 01:26:49;;;;;;;;;;;;;;;9.33;100.00;97323.38;6234873;22;20240;-57
2023/03/14 01:29:14;;;;;;;;;;;;;;;9.25;100.00;97326.78;6259859;22;19918;-57
2023/03/14 01:31:40;;;;;;;;;;;;;;;9.35;100.00;97316.25;6234323;22;20472;-56
2023/03/14 01:34:05;;;;;;;;;;;;;;;9.36;100.00;97312.66;6261977;22;19911;-56
2023/03/14 01:36:30;;;;;;;;;;;;;;;9.46;100.00;97294.31;6205408;22;20641;-57
2023/03/14 01:38:55;;;;;;;;;;;;;;;9.17;100.00;97282.75;6208681;22;19938;-56
2023/03/14 01:44:24;;;;;;;;;;;;;;;8.96;100.00;97262.56;6260504;22;19957;-55
2023/03/14 01:46:49;;;;;;;;;;;;;;;9.01;100.00;97262.88;6256994;22;20709;-57
2023/03/14 01:49:22;;;;;;;;;;;;;;;8.90;100.00;97256.25;6257212;22;19911;-58
2023/03/14 01:51:47;;;;;;;;;;;;;;;8.98;100.00;97251.06;6233990;22;19915;-60
2023/03/14 01:54:18;;;;;;;;;;;;;;;8.78;100.00;97219.53;6263445;22;19954;-57
2023/03/14 01:56:45;;;;;;;;;;;;;;;8.85;100.00;97219.66;6259048;22;19911;-58
2023/03/14 01:59:10;;;;;;;;;;;;;;;8.82;100.00;97215.63;6260900;22;20002;-58
2023/03/14 02:01:35;;;;;;;;;;;;;;;8.91;100.00;97215.56;6262348;22;19981;-57
2023/03/14 02:07:17;;;;;;;;;;;;;;;8.77;100.00;97189.41;6260949;22;19914;-59
2023/03/14 02:09:42;;;;;;;;;;;;;;;8.71;100.00;97177.13;6225580;22;19911;-57
2023/03/14 02:12:08;;;;;;;;;;;;;;;8.58;100.00;97174.22;6232746;22;19917;-56
2023/03/14 02:14:34;;;;;;;;;;;;;;;8.63;100.00;97177.97;6234151;22;19991;-57
2023/03/14 02:17:00;;;;;;;;;;;;;;;8.76;100.00;97182.63;6207375;22;19911;-57
2023/03/14 02:19:48;;;;;;;;;;;;;;;8.73;100.00;97182.94;6208089;22;19988;-57
2023/03/14 02:22:14;;;;;;;;;;;;;;;8.77;100.00;97202.34;6208343;22;19911;-59
2023/03/14 02:24:51;;;;;;;;;;;;;;;8.81;100.00;97201.03;6232605;22;19917;-57
2023/03/14 02:27:17;;;;;;;;;;;;;;;8.86;100.00;97221.28;6234163;22;19917;-57
2023/03/14 02:29:48;;;;;;;;;;;;;;;8.71;100.00;97234.13;6208140;22;19911;-58
2023/03/14 02:32:13;;;;;;;;;;;;;;;8.61;100.00;97249.84;6262141;22;19911;-56
2023/03/14 02:34:39;;;;;;;;;;;;;;;8.65;100.00;97268.47;6232414;22;19945;-56
2023/03/14 02:37:04;;;;;;;;;;;;;;;8.63;100.00;97291.97;6233418;22;19956;-55
2023/03/14 02:39:39;;;;;;;;;;;;;;;8.72;100.00;97303.09;6261695;22;19915;-56
2023/03/14 02:42:04;;;;;;;;;;;;;;;8.73;100.00;97319.50;6234968;22;20304;-56
2023/03/14 02:44:30;;;;;;;;;;;;;;;8.65;100.00;97315.94;6262041;22;19911;-56
2023/03/14 02:47:54;;;;;;;;;;;;;;;-145.70;100.00;63560.63;6208650;22;20713;-57
2023/03/14 02:51:18;;;;;;;;;;;;;;;-145.70;100.00;63560.63;6233193;22;19915;-56
2023/03/14 02:54:42;;;;;;;;;;;;;;;-145.70;100.00;63560.63;6261831;22;19915;-57
2023/03/14 02:58:06;;;;;;;;;;;;;;;-145.70;100.00;63560.63;6261592;22;19996;-57
2023/03/14 03:01:29;;;;;;;;;;;;;;;-145.70;100.00;63560.63;6232884;22;19930;-56
2023/03/14 03:04:53;;;;;;;;;;;;;;;-145.70;100.00;63560.63;6259113;22;19938;-57
2023/03/14 03:08:18;;;;;;;;;;;;;;;-145.70;100.00;63560.63;6233598;22;19986;-58
2023/03/14 03:11:42;;;;;;;;;;;;;;;-145.70;100.00;63560.63;6260587;22;19911;-58
2023/03/14 03:15:06;;;;;;;;;;;;;;;-145.70;100.00;63560.63;6233854;22;19922;-59
2023/03/14 03:18:30;;;;;;;;;;;;;;;-145.70;100.00;63560.63;6208832;22;19939;-58
2023/03/14 03:21:53;;;;;;;;;;;;;;;-145.70;100.00;63560.63;6233312;22;19915;-59
2023/03/14 03:25:17;;;;;;;;;;;;;;;-145.70;100.00;63560.63;6232998;22;20473;-59
2023/03/14 03:28:41;;;;;;;;;;;;;;;-145.70;100.00;63560.63;6232601;22;19911;-59
2023/03/14 03:32:05;;;;;;;;;;;;;;;-145.70;100.00;63560.63;6260502;22;19911;-61
2023/03/14 03:35:29;;;;;;;;;;;;;;;-145.70;100.00;63560.63;6233073;22;19968;-58
2023/03/14 03:38:52;;;;;;;;;;;;;;;-145.70;100.00;63560.63;6203910;22;20295;-59
2023/03/14 03:42:16;;;;;;;;;;;;;;;-145.70;100.00;63560.63;6232868;22;20508;-58
2023/03/14 03:45:40;;;;;;;;;;;;;;;-145.70;100.00;63560.63;6221147;22;19918;-59
2023/03/14 03:49:04;;;;;;;;;;;;;;;-145.70;100.00;63560.63;6207069;22;19978;-57
2023/03/14 03:52:27;;;;;;;;;;;;;;;-145.70;100.00;63560.63;6231152;22;19943;-58
2023/03/14 03:55:51;;;;;;;;;;;;;;;-145.70;100.00;63560.63;6258127;22;19952;-58
2023/03/14 03:59:15;;;;;;;;;;;;;;;-145.70;100.00;63560.63;6231111;22;20247;-59
2023/03/14 04:02:39;;;;;;;;;;;;;;;-145.70;100.00;63560.63;6258249;22;19990;-57
2023/03/14 04:06:04;;;;;;;;;;;;;;;-145.70;100.00;63560.63;6232330;22;19911;-58
2023/03/14 04:09:28;;;;;;;;;;;;;;;-145.70;100.00;63560.63;6208767;22;19933;-59
2023/03/14 04:12:52;;;;;;;;;;;;;;;-145.70;100.00;63560.63;6261769;22;20427;-57
2023/03/14 04:16:20;;;;;;;;;;;;;;;-145.70;100.00;63560.63;6260997;22;20724;-59
2023/03/14 04:19:44;;;;;;;;;;;;;;;-145.70;100.00;63560.63;6207038;22;19918;-57
2023/03/14 04:23:07;;;;;;;;;;;;;;;-145.70;100.00;63560.63;6207984;22;19969;-60
2023/03/14 04:26:31;;;;;;;;;;;;;;;-145.70;100.00;63560.63;6261503;22;19911;-58
2023/03/14 04:33:56;;;;;;;;;;;;;;;-145.70;100.00;63560.63;6257398;22;19918;-58
2023/03/14 04:37:20;;;;;;;;;;;;;;;-145.70;100.00;63560.63;6252839;22;19917;-58
2023/03/14 04:40:44;;;;;;;;;;;;;;;-145.70;100.00;63560.63;6259417;22;20002;-58
2023/03/14 04:44:08;;;;;;;;;;;;;;;-145.70;100.00;63560.63;6206794;22;19911;-58
2023/03/14 04:47:32;;;;;;;;;;;;;;;-145.70;100.00;63560.63;6259426;22;20403;-58
2023/03/14 04:50:55;;;;;;;;;;;;;;;-145.70;100.00;63560.63;6206089;22;19969;-59
2023/03/14 04:54:19;;;;;;;;;;;;;;;-145.70;100.00;63560.63;6207157;22;19918;-58
2023/03/14 04:57:43;;;;;;;;;;;;;;;-145.70;100.00;63560.63;6232558;22;19959;-59
2023/03/14 05:01:07;;;;;;;;;;;;;;;-145.70;100.00;63560.63;6259596;22;20337;-58
2023/03/14 05:04:32;;;;;;;;;;;;;;;-145.70;100.00;63560.63;6231749;22;19919;-59
2023/03/14 05:07:05;;;;;;;;;;;;;;;-145.70;100.00;97315.94;6258920;22;19915;-58
2023/03/14 05:09:53;;;;;;;;;;;;;;;-145.70;100.00;63560.63;6231632;22;19917;-59
2023/03/14 05:12:18;;;;;;;;;;;;;;;-145.70;100.00;63560.63;6207123;22;19922;-58
2023/03/14 05:15:42;;;;;;;;;;;;;;;-145.70;100.00;63560.63;6208015;22;19911;-58
2023/03/14 05:19:06;;;;;;;;;;;;;;;-145.70;100.00;63560.63;6259146;22;20662;-59
2023/03/14 05:22:29;;;;;;;;;;;;;;;-145.70;100.00;63560.63;6232623;22;19911;-58
2023/03/14 05:25:53;;;;;;;;;;;;;;;-145.70;100.00;63560.63;6259599;22;20035;-58
2023/03/14 05:29:17;;;;;;;;;;;;;;;-145.70;100.00;63560.63;6232039;22;19953;-59
2023/03/14 05:32:41;;;;;;;;;;;;;;;-145.70;100.00;63560.63;6233022;22;19945;-59
2023/03/14 05:36:05;;;;;;;;;;;;;;;-145.70;100.00;63560.63;6234556;22;20450;-58
2023/03/14 05:39:29;;;;;;;;;;;;;;;-145.70;100.00;63560.63;6263736;22;19929;-58
2023/03/14 05:42:53;;;;;;;;;;;;;;;-145.70;100.00;63560.63;6263798;22;19915;-58
2023/03/14 05:46:16;;;;;;;;;;;;;;;-145.70;100.00;63560.63;6236883;22;19992;-59
2023/03/14 05:49:40;;;;;;;;;;;;;;;-145.70;100.00;63560.63;6234778;22;19915;-59
2023/03/14 05:53:04;;;;;;;;;;;;;;;-145.70;100.00;63560.63;6211696;22;20224;-58
2023/03/14 05:56:28;;;;;;;;;;;;;;;-145.70;100.00;63560.63;6236778;22;19917;-58
2023/03/14 05:59:52;;;;;;;;;;;;;;;-145.70;100.00;63560.63;6262657;22;20340;-61
2023/03/14 06:03:15;;;;;;;;;;;;;;;-145.70;100.00;63560.63;6263884;22;19907;-60
2023/03/14 06:06:39;;;;;;;;;;;;;;;-145.70;100.00;63560.63;6236642;22;20494;-59
2023/03/14 06:10:03;;;;;;;;;;;;;;;-145.70;100.00;63560.63;6237202;22;19957;-61
2023/03/14 06:13:27;;;;;;;;;;;;;;;-145.70;100.00;63560.63;6264029;22;19986;-59
2023/03/14 06:16:50;;;;;;;;;;;;;;;-145.70;100.00;63560.63;6264285;22;19911;-60
2023/03/14 06:20:14;;;;;;;;;;;;;;;-145.70;100.00;63560.63;6263781;22;19918;-59
2023/03/14 06:23:38;;;;;;;;;;;;;;;-145.70;100.00;63560.63;6235488;22;20018;-59
2023/03/14 06:27:02;;;;;;;;;;;;;;;-145.70;100.00;63560.63;6259099;22;20683;-59
2023/03/14 06:30:26;;;;;;;;;;;;;;;-145.70;100.00;63560.63;6176281;22;19911;-61
2023/03/14 06:33:50;;;;;;;;;;;;;;;-145.70;100.00;63560.63;6228686;22;20529;-59
2023/03/14 06:37:14;;;;;;;;;;;;;;;-145.70;100.00;63560.63;6256668;22;19937;-58
2023/03/14 06:40:38;;;;;;;;;;;;;;;-145.70;100.00;63560.63;6233139;22;20027;-60
2023/03/14 06:44:02;;;;;;;;;;;;;;;-145.70;100.00;63560.63;6209054;22;19986;-60
2023/03/14 06:47:25;;;;;;;;;;;;;;;-145.70;100.00;63560.63;6234111;22;20001;-60
2023/03/14 06:50:49;;;;;;;;;;;;;;;-145.70;100.00;63560.63;6209792;22;20759;-61
2023/03/14 06:54:13;;;;;;;;;;;;;;;-145.70;100.00;63560.63;6235462;22;19977;-58
2023/03/14 06:57:37;;;;;;;;;;;;;;;-145.70;100.00;63560.63;6262437;22;20227;-59
2023/03/14 07:01:01;;;;;;;;;;;;;;;-145.70;100.00;63560.63;6235374;22;20162;-59
2023/03/14 07:04:24;;;;;;;;;;;;;;;-145.70;100.00;63560.63;6234333;22;19933;-59
2023/03/14 07:07:48;;;;;;;;;;;;;;;-145.70;100.00;63560.63;6234794;22;19938;-60
2023/03/14 07:11:12;;;;;;;;;;;;;;;-145.70;100.00;63560.63;6208435;22;19911;-60
2023/03/14 07:14:33;;;;;;;;;;;;;;;-145.70;100.00;63560.63;6235506;22;19911;-60
2023/03/14 07:17:57;;;;;;;;;;;;;;;-145.70;100.00;63560.63;6233348;22;19999;-60
2023/03/14 07:20:23;;;;;;;;;;;;;;;-145.70;100.00;63560.63;6234909;22;20001;-61
2023/03/14 07:22:49;;;;;;;;;;;;;;;-145.70;100.00;63560.63;6262249;22;20012;-59
2023/03/14 07:25:14;;;;;;;;;;;;;;;-145.70;100.00;63560.63;6262860;22;19997;-59
2023/03/14 07:27:40;;;;;;;;;;;;;;;-145.70;100.00;63560.63;6208881;22;19953;-60
2023/03/14 07:30:05;;;;;;;;;;;;;;;-145.70;100.00;63560.63;6209982;22;19999;-59
2023/03/14 07:32:31;;;;;;;;;;;;;;;-145.70;100.00;63560.63;6235179;22;19999;-61
2023/03/14 07:34:56;;;;;;;;;;;;;;;-145.70;100.00;63560.63;6209834;22;19918;-59
2023/03/14 07:37:21;;;;;;;;;;;;;;;-145.70;100.00;63560.63;6208918;22;19911;-59
2023/03/14 07:40:45;;;;;;;;;;;;;;;-145.70;100.00;63560.63;6233855;22;19918;-60
2023/03/14 07:43:10;;;;;;;;;;;;;;;-145.70;100.00;63560.63;6261688;22;19910;-59
2023/03/14 07:46:34;;;;;;;;;;;;;;;-145.70;100.00;63560.63;6236194;22;20667;-59
2023/03/14 07:49:58;;;;;;;;;;;;;;;-145.70;100.00;63560.63;6209139;22;19922;-60
2023/03/14 07:52:40;;;;;;;;;;;;;;;8.65;100.00;97315.94;6261790;22;19918;-59
2023/03/14 07:55:05;;;;;;;;;;;;;;;8.53;100.00;97140.28;6209037;22;19977;-60
2023/03/14 07:58:29;;;;;;;;;;;;;;;-145.70;100.00;63560.63;6234994;22;19910;-59
2023/03/14 08:00:54;;;;;;;;;;;;;;;8.48;100.00;97151.13;6261810;22;19957;-58
2023/03/14 08:03:20;;;;;;;;;;;;;;;8.52;100.00;97151.59;6261642;22;20050;-59
2023/03/14 08:05:49;;;;;;;;;;;;;;;8.38;100.00;97160.84;6210591;22;19907;-59
2023/03/14 08:08:14;;;;;;;;;;;;;;;8.41;100.00;97173.44;6234999;22;19918;-60
2023/03/14 08:10:39;;;;;;;;;;;;;;;-145.70;100.00;63560.63;6262035;22;19911;-61
2023/03/14 08:13:05;;;;;;;;;;;;;;;8.50;100.00;63560.63;6236029;22;19911;-59
2023/03/14 08:15:30;;;;;;;;;;;;;;;-145.70;100.00;63560.63;6235212;22;20480;-59
2023/03/14 08:17:55;;;;;;;;;;;;;;;-145.70;100.00;63560.63;6236910;22;20209;-58
2023/03/14 08:20:21;;;;;;;;;;;;;;;-145.70;100.00;63560.63;6233795;22;19911;-60
2023/03/14 08:22:47;;;;;;;;;;;;;;;-145.70;100.00;63560.63;6209425;22;19911;-59
2023/03/14 08:25:12;;;;;;;;;;;;;;;-145.70;100.00;63560.63;6209552;22;19915;-59
2023/03/14 08:27:38;;;;;;;;;;;;;;;-145.70;100.00;63560.63;6234267;22;20559;-59
2023/03/14 08:30:07;;;;;;;;;;;;;;;-145.70;100.00;63560.63;6209179;22;20053;-59
2023/03/14 08:32:32;;;;;;;;;;;;;;;-145.70;100.00;63560.63;6233994;22;20052;-60
2023/03/14 08:34:58;;;;;;;;;;;;;;;-145.70;100.00;63560.63;6262445;22;19994;-58
2023/03/14 08:37:24;;;;;;;;;;;;;;;-145.70;100.00;63560.63;6234821;22;20300;-60
2023/03/14 08:39:50;;;;;;;;;;;;;;;-145.70;100.00;63560.63;6209294;22;20016;-59
2023/03/14 08:42:15;;;;;;;;;;;;;;;-145.70;100.00;63560.63;6261930;22;19954;-60
2023/03/14 08:44:40;;;;;;;;;;;;;;;-145.70;100.00;63560.63;6260676;22;20261;-59
2023/03/14 08:47:05;;;;;;;;;;;;;;;-145.70;100.00;63560.63;6209792;22;19921;-59
2023/03/14 08:49:31;;;;;;;;;;;;;;;-145.70;100.00;63560.63;6234664;22;20331;-60
2023/03/14 08:51:56;;;;;;;;;;;;;;;-145.70;100.00;63560.63;6261943;22;19962;-59
2023/03/14 08:54:21;;;;;;;;;;;;;;;-145.70;100.00;63560.63;6233894;22;19986;-60
2023/03/14 08:56:46;;;;;;;;;;;;;;;-145.70;100.00;63560.63;6208241;22;19981;-59
2023/03/14 08:59:12;;;;;;;;;;;;;;;-145.70;100.00;63560.63;6262540;22;19917;-59
2023/03/14 09:01:37;;;;;;;;;;;;;;;-145.70;100.00;63560.63;6260191;22;19910;-59
2023/03/14 09:04:02;;;;;;;;;;;;;;;-145.70;100.00;63560.63;6261918;22;20051;-61
2023/03/14 09:06:28;;;;;;;;;;;;;;;-145.70;100.00;63560.63;6261054;22;19943;-59
2023/03/14 09:08:53;;;;;;;;;;;;;;;-145.70;100.00;63560.63;6233818;22;20645;-60
2023/03/14 09:11:18;;;;;;;;;;;;;;;-145.70;100.00;63560.63;6208900;22;19915;-59
2023/03/14 09:13:44;;;;;;;;;;;;;;;-145.70;100.00;63560.63;6261007;22;20350;-59
2023/03/14 09:16:09;;;;;;;;;;;;;;;-145.70;100.00;63560.63;6234437;22;19911;-60
2023/03/14 09:18:34;;;;;;;;;;;;;;;-145.70;100.00;63560.63;6233445;22;19977;-60
2023/03/14 09:20:59;;;;;;;;;;;;;;;-145.70;100.00;63560.63;6233452;22;20395;-59
2023/03/14 09:23:25;;;;;;;;;;;;;;;-145.70;100.00;63560.63;6235475;22;19918;-59
2023/03/14 09:25:56;;;;;;;;;;;;;;;-145.70;100.00;63560.63;6233815;22;19911;-60
2023/03/14 09:28:22;;;;;;;;;;;;;;;-145.70;100.00;63560.63;6234334;22;19938;-59
2023/03/14 09:30:47;;;;;;;;;;;;;;;-145.70;100.00;63560.63;6234082;22;19915;-60
2023/03/14 09:33:12;;;;;;;;;;;;;;;-145.70;100.00;63560.63;6233275;22;20299;-60
2023/03/14 09:35:38;;;;;;;;;;;;;;;-145.70;100.00;63560.63;6208924;22;20005;-60
2023/03/14 09:38:03;;;;;;;;;;;;;;;-145.70;100.00;63560.63;6233787;22;20018;-60
2023/03/14 09:40:31;;;;;;;;;;;;;;;-145.70;100.00;63560.63;6236265;22;20618;-60
2023/03/14 09:42:56;;;;;;;;;;;;;;;-145.70;100.00;63560.63;6207290;22;19911;-59
2023/03/14 09:45:26;;;;;;;;;;;;;;;-145.70;100.00;63560.63;6235546;22;20472;-59
2023/03/14 09:47:52;;;;;;;;;;;;;;;-145.70;100.00;63560.63;6207096;22;19918;-60
2023/03/14 09:50:17;;;;;;;;;;;;;;;-145.70;100.00;63560.63;6234592;22;19926;-60
2023/03/14 09:52:43;;;;;;;;;;;;;;;-145.70;100.00;63560.63;6233599;22;19919;-59
2023/03/14 09:55:13;;;;;;;;;;;;;;;-145.70;100.00;63560.63;6260846;22;19915;-59
2023/03/14 09:57:39;;;;;;;;;;;;;;;-145.70;100.00;63560.63;6207040;22;19919;-60
2023/03/14 10:00:15;;;;;;;;;;;;;;;-145.70;100.00;63560.63;6233026;22;19918;-60
2023/03/14 10:02:41;;;;;;;;;;;;;;;-145.70;100.00;63560.63;6234722;22;19911;-60
2023/03/14 10:05:18;;;;;;;;;;;;;;;-145.70;100.00;63560.63;6232792;22;19911;-59
2023/03/14 10:07:43;;;;;;;;;;;;;;;-145.70;100.00;63560.63;6261926;22;20463;-59
2023/03/14 10:10:27;;;;;;;;;;;;;;;-145.70;100.00;63560.63;6261105;22;20002;-60
2023/03/14 10:13:15;;;;;;;;;;;;;;;-145.70;100.00;63560.63;6209683;22;19915;-59
2023/03/14 10:15:41;;;;;;;;;;;;;;;-145.70;100.00;63560.63;6218287;22;19910;-59
2023/03/14 10:18:12;;;;;;;;;;;;;;;-145.70;100.00;63560.63;6263501;22;19918;-59
2023/03/14 10:20:44;;;;;;;;;;;;;;;-145.70;100.00;63560.63;6208432;22;20310;-61
2023/03/14 10:23:13;;;;;;;;;;;;;;;-145.70;100.00;63560.63;6236832;22;19946;-60
2023/03/14 10:25:39;;;;;;;;;;;;;;;-145.70;100.00;63560.63;6234205;22;19953;-60
2023/03/14 10:28:04;;;;;;;;;;;;;;;-145.70;100.00;63560.63;6209959;22;19911;-59
2023/03/14 10:30:38;;;;;;;;;;;;;;;-145.70;100.00;63560.63;6235493;22;19911;-59
2023/03/14 10:33:22;;;;;;;;;;;;;;;-145.70;100.00;63560.63;6261720;22;19911;-60
2023/03/14 10:35:55;;;;;;;;;;;;;;;-145.70;100.00;63560.63;6235862;22;19919;-59
2023/03/14 10:38:20;;;;;;;;;;;;;;;-145.70;100.00;63560.63;6235537;22;20619;-59
2023/03/14 10:40:48;;;;;;;;;;;;;;;-145.70;100.00;63560.63;6210503;22;20014;-60
2023/03/14 10:43:15;;;;;;;;;;;;;;;-145.70;100.00;63560.63;6235023;22;19996;-59
2023/03/14 10:45:42;;;;;;;;;;;;;;;-145.70;100.00;63560.63;6235899;22;20403;-62
2023/03/14 10:48:14;;;;;;;;;;;;;;;-145.70;100.00;63560.63;6235878;22;19911;-60
2023/03/14 10:50:40;;;;;;;;;;;;;;;-145.70;100.00;63560.63;6235099;22;19919;-60
2023/03/14 10:53:07;;;;;;;;;;;;;;;-145.70;100.00;63560.63;6235605;22;19958;-60
2023/03/14 10:55:40;;;;;;;;;;;;;;;-145.70;100.00;63560.63;6262253;22;19930;-59
2023/03/14 10:58:16;;;;;;;;;;;;;;;-145.70;100.00;63560.63;6234133;22;19911;-59
2023/03/14 11:00:42;;;;;;;;;;;;;;;-145.70;100.00;63560.63;6235518;22;19964;-60
2023/03/14 11:03:11;;;;;;;;;;;;;;;-145.70;100.00;63560.63;6236154;22;20431;-60
2023/03/14 11:05:38;;;;;;;;;;;;;;;-145.70;100.00;63560.63;6263548;22;19918;-59
2023/03/14 11:08:11;;;;;;;;;;;;;;;-145.70;100.00;63560.63;6262678;22;20325;-60
2023/03/14 11:10:43;;;;;;;;;;;;;;;-145.70;100.00;63560.63;6234730;22;19947;-60
2023/03/14 11:13:21;;;;;;;;;;;;;;;-145.70;100.00;63560.63;6261670;22;19986;-60
2023/03/14 11:15:53;;;;;;;;;;;;;;;-145.70;100.00;63560.63;6260515;22;19911;-61
2023/03/14 11:18:21;;;;;;;;;;;;;;;-145.70;100.00;63560.63;6233756;22;20363;-60
2023/03/14 11:20:59;;;;;;;;;;;;;;;-145.70;100.00;63560.63;6234072;22;19960;-60
2023/03/14 11:23:31;;;;;;;;;;;;;;;-145.70;100.00;63560.63;6236243;22;19919;-60
2023/03/14 11:25:57;;;;;;;;;;;;;;;-145.70;100.00;63560.63;6263837;22;19911;-59
2023/03/14 11:28:26;;;;;;;;;;;;;;;-145.70;100.00;63560.63;6235646;22;19922;-61
2023/03/14 11:30:55;;;;;;;;;;;;;;;-145.70;100.00;63560.63;6209843;22;19907;-59
2023/03/14 11:33:30;;;;;;;;;;;;;;;-145.70;100.00;63560.63;6210526;22;20586;-60
2023/03/14 11:35:59;;;;;;;;;;;;;;;-145.70;100.00;63560.63;6261153;22;20506;-60
2023/03/14 11:38:29;;;;;;;;;;;;;;;-145.70;100.00;63560.63;6233087;22;19911;-59
2023/03/14 11:40:56;;;;;;;;;;;;;;;-145.70;100.00;63560.63;6234555;22;19954;-60
2023/03/14 11:43:31;;;;;;;;;;;;;;;-145.70;100.00;63560.63;6209272;22;19918;-61
2023/03/14 11:45:58;;;;;;;;;;;;;;;-145.70;100.00;63560.63;6234157;22;19911;-59
2023/03/14 11:48:26;;;;;;;;;;;;;;;-145.70;100.00;63560.63;6209358;22;20636;-60
2023/03/14 11:50:52;;;;;;;;;;;;;;;-145.70;100.00;63560.63;6262463;22;19922;-60
2023/03/14 11:53:39;;;;;;;;;;;;;;;-145.70;100.00;63560.63;6233276;22;19911;-60
2023/03/14 11:56:08;;;;;;;;;;;;;;;-145.70;100.00;63560.63;6208366;22;19908;-61
2023/03/14 11:58:34;;;;;;;;;;;;;;;-145.70;100.00;63560.63;6234757;22;20354;-60
2023/03/14 12:01:01;;;;;;;;;;;;;;;-145.70;100.00;63560.63;6208747;22;19997;-60
2023/03/14 12:03:35;;;;;;;;;;;;;;;-145.70;100.00;63560.63;6231845;22;19913;-59
2023/03/14 12:06:14;;;;;;;;;;;;;;;-145.70;100.00;63560.63;6205636;22;19911;-59
2023/03/14 12:08:43;;;;;;;;;;;;;;;-145.70;100.00;63560.63;6232808;22;19915;-60
2023/03/14 12:11:13;;;;;;;;;;;;;;;-145.70;100.00;63560.63;6233295;22;20426;-61
2023/03/14 12:13:39;;;;;;;;;;;;;;;-145.70;100.00;63560.63;6233137;22;19987;-60
2023/03/14 12:16:05;;;;;;;;;;;;;;;-145.70;100.00;63560.63;6207054;22;19943;-61
2023/03/14 12:18:38;;;;;;;;;;;;;;;-145.70;100.00;63560.63;6231743;22;20580;-60
2023/03/14 12:21:04;;;;;;;;;;;;;;;-145.70;100.00;63560.63;6232253;22;19908;-60
2023/03/14 12:23:42;;;;;;;;;;;;;;;-145.70;100.00;63560.63;6232253;22;19918;-61
2023/03/14 12:26:13;;;;;;;;;;;;;;;-145.70;100.00;63560.63;6232839;22;20465;-61
2023/03/14 12:28:39;;;;;;;;;;;;;;;-145.70;100.00;63560.63;6230065;22;20528;-58
2023/03/14 12:31:25;;;;;;;;;;;;;;;-145.70;100.00;63560.63;6206998;22;19918;-62
2023/03/14 12:34:00;;;;;;;;;;;;;;;-145.70;100.00;63560.63;6234152;22;19915;-60
2023/03/14 12:36:44;;;;;;;;;;;;;;;-145.70;100.00;63560.63;6230771;22;19917;-60
2023/03/14 12:39:15;;;;;;;;;;;;;;;-145.70;100.00;63560.63;6259220;22;19915;-61
2023/03/14 12:41:44;;;;;;;;;;;;;;;-145.70;100.00;63560.63;6257725;22;19917;-61
2023/03/14 12:44:28;;;;;;;;;;;;;;;-145.70;100.00;63560.63;6257536;22;20571;-60
2023/03/14 12:46:53;;;;;;;;;;;;;;;-145.70;100.00;63560.63;6259820;22;19921;-60
2023/03/14 12:49:18;;;;;;;;;;;;;;;-145.70;100.00;63560.63;6230337;22;19998;-60
2023/03/14 12:51:43;;;;;;;;;;;;;;;-145.70;100.00;63560.63;6258743;22;19937;-60
2023/03/14 12:54:12;;;;;;;;;;;;;;;-145.70;100.00;63560.63;6206616;22;19945;-60
2023/03/14 12:56:40;;;;;;;;;;;;;;;-145.70;100.00;63560.63;6258047;22;19981;-61
2023/03/14 12:59:10;;;;;;;;;;;;;;;-145.70;100.00;63560.63;6231793;22;20390;-60
2023/03/14 13:01:35;;;;;;;;;;;;;;;-145.70;100.00;63560.63;6230467;22;19911;-61
2023/03/14 13:04:07;;;;;;;;;;;;;;;-145.70;100.00;63560.63;6231853;22;19977;-60
2023/03/14 13:06:53;;;;;;;;;;;;;;;-145.70;100.00;63560.63;6259468;22;19934;-61
2023/03/14 13:09:34;;;;;;;;;;;;;;;-145.70;100.00;63560.63;6231769;22;19910;-60
2023/03/14 13:12:14;;;;;;;;;;;;;;;-145.70;100.00;63560.63;6230538;22;20300;-61
2023/03/14 13:14:48;;;;;;;;;;;;;;;-145.70;100.00;63560.63;6231361;22;19918;-60
2023/03/14 13:17:14;;;;;;;;;;;;;;;-145.70;100.00;63560.63;6231000;22;19911;-61
2023/03/14 13:19:39;;;;;;;;;;;;;;;-145.70;100.00;63560.63;6231987;22;19915;-60
2023/03/14 13:22:06;;;;;;;;;;;;;;;-145.70;100.00;63560.63;6258806;22;19926;-61
2023/03/14 13:24:33;;;;;;;;;;;;;;;-145.70;100.00;63560.63;6208001;22;19907;-60
2023/03/14 13:26:59;;;;;;;;;;;;;;;-145.70;100.00;63560.63;6232990;22;19954;-60
2023/03/14 13:29:26;;;;;;;;;;;;;;;-145.70;100.00;63560.63;6206951;22;20328;-60
2023/03/14 13:31:52;;;;;;;;;;;;;;;-145.70;100.00;63560.63;6233446;22;19942;-59
2023/03/14 13:34:17;;;;;;;;;;;;;;;-145.70;100.00;63560.63;6256033;22;20415;-59
2023/03/14 13:36:43;;;;;;;;;;;;;;;-145.70;100.00;63560.63;6232684;22;19938;-60
2023/03/14 13:39:13;;;;;;;;;;;;;;;-145.70;100.00;63560.63;6258086;22;20087;-60
2023/03/14 13:41:39;;;;;;;;;;;;;;;-145.70;100.00;63560.63;6232893;22;20352;-59
2023/03/14 13:44:05;;;;;;;;;;;;;;;-145.70;100.00;63560.63;6229110;22;19961;-60
2023/03/14 13:46:31;;;;;;;;;;;;;;;-145.70;100.00;63560.63;6230359;22;19911;-59
2023/03/14 13:48:57;;;;;;;;;;;;;;;-145.70;100.00;63560.63;6230745;22;19915;-61
2023/03/14 13:51:24;;;;;;;;;;;;;;;-145.70;100.00;63560.63;6230179;22;19911;-60
2023/03/14 13:53:50;;;;;;;;;;;;;;;-145.70;100.00;63560.63;6230424;22;19917;-59